sensor_id;sensor_type;location;lat;lon;timestamp;pressure;altitude;pressure_sealevel;temperature;humidity
39739;BME280;25422;48.286;8.484;2023-11-18T00:01:19;94848.59;;;1.39;100.00
39739;BME280;25422;48.286;8.484;2023-11-18T00:03:45;94849.84;;;1.46;100.00
39739;BME280;25422;48.286;8.484;2023-11-18T00:06:10;94852.78;;;1.40;100.00
39739;BME280;25422;48.286;8.484;2023-11-18T00:08:36;94854.56;;;1.39;100.00
39739;BME280;25422;48.286;8.484;2023-11-18T00:11:01;94849.59;;;1.36;100.00
39739;BME280;25422;48.286;8.484;2023-11-18T00:13:27;94851.16;;;1.39;100.00
39739;BME280;25422;48.286;8.484;2023-11-18T00:15:52;94851.06;;;1.40;100.00
39739;BME280;25422;48.286;8.484;2023-11-18T00:18:18;94850.22;;;1.40;100.00
39739;BME280;25422;48.286;8.484;2023-11-18T00:20:44;94847.63;;;1.40;100.00
39739;BME280;25422;48.286;8.484;2023-11-18T00:23:10;94848.38;;;1.42;100.00
39739;BME280;25422;48.286;8.484;2023-11-18T00:25:36;94846.72;;;1.41;100.00
39739;BME280;25422;48.286;8.484;2023-11-18T00:28:05;94847.81;;;1.51;100.00
39739;BME280;25422;48.286;8.484;2023-11-18T00:30:33;94834.00;;;1.52;100.00
39739;BME280;25422;48.286;8.484;2023-11-18T00:32:58;94843.03;;;1.45;100.00
39739;BME280;25422;48.286;8.484;2023-11-18T00:35:24;94855.97;;;1.30;100.00
39739;BME280;25422;48.286;8.484;2023-11-18T00:37:50;94852.84;;;1.25;100.00
39739;BME280;25422;48.286;8.484;2023-11-18T00:40:15;94849.53;;;1.23;100.00
39739;BME280;25422;48.286;8.484;2023-11-18T00:42:44;94859.84;;;1.23;100.00
39739;BME280;25422;48.286;8.484;2023-11-18T00:45:10;94853.13;;;1.21;100.00
39739;BME280;25422;48.286;8.484;2023-11-18T00:47:38;94845.78;;;1.14;100.00
39739;BME280;25422;48.286;8.484;2023-11-18T00:50:06;94849.28;;;1.13;100.00
39739;BME280;25422;48.286;8.484;2023-11-18T00:52:34;94848.63;;;1.10;100.00
39739;BME280;25422;48.286;8.484;2023-11-18T00:55:00;94847.00;;;1.09;100.00
39739;BME280;25422;48.286;8.484;2023-11-18T00:57:26;94844.78;;;1.03;100.00
39739;BME280;25422;48.286;8.484;2023-11-18T00:59:52;94841.09;;;1.07;100.00
39739;BME280;25422;48.286;8.484;2023-11-18T01:02:17;94835.84;;;1.08;100.00
39739;BME280;25422;48.286;8.484;2023-11-18T01:04:44;94844.06;;;1.00;100.00
39739;BME280;25422;48.286;8.484;2023-11-18T01:07:11;94842.22;;;1.03;100.00
39739;BME280;25422;48.286;8.484;2023-11-18T01:09:37;94847.66;;;0.98;100.00
39739;BME280;25422;48.286;8.484;2023-11-18T01:12:04;94840.03;;;0.96;100.00
39739;BME280;25422;48.286;8.484;2023-11-18T01:14:32;94835.81;;;0.95;100.00
39739;BME280;25422;48.286;8.484;2023-11-18T01:16:57;94841.56;;;0.99;100.00
39739;BME280;25422;48.286;8.484;2023-11-18T01:19:23;94839.94;;;0.98;100.00
39739;BME280;25422;48.286;8.484;2023-11-18T01:21:49;94852.06;;;0.96;100.00
39739;BME280;25422;48.286;8.484;2023-11-18T01:24:15;94867.28;;;1.00;100.00
39739;BME280;25422;48.286;8.484;2023-11-18T01:26:41;94867.34;;;0.99;100.00
39739;BME280;25422;48.286;8.484;2023-11-18T01:29:07;94864.16;;;0.95;100.00
39739;BME280;25422;48.286;8.484;2023-11-18T01:31:32;94868.66;;;0.92;100.00
39739;BME280;25422;48.286;8.484;2023-11-18T01:33:59;94870.75;;;0.85;100.00
39739;BME280;25422;48.286;8.484;2023-11-18T01:36:25;94880.72;;;0.91;100.00
39739;BME280;25422;48.286;8.484;2023-11-18T01:38:50;94887.44;;;0.94;100.00
39739;BME280;25422;48.286;8.484;2023-11-18T01:41:16;94881.88;;;1.00;100.00
39739;BME280;25422;48.286;8.484;2023-11-18T01:43:46;94877.84;;;0.96;100.00
39739;BME280;25422;48.286;8.484;2023-11-18T01:46:12;94872.22;;;0.89;100.00
39739;BME280;25422;48.286;8.484;2023-11-18T01:48:39;94870.75;;;0.85;100.00
39739;BME280;25422;48.286;8.484;2023-11-18T01:51:07;94856.88;;;0.88;100.00
39739;BME280;25422;48.286;8.484;2023-11-18T01:53:34;94849.34;;;0.84;100.00
39739;BME280;25422;48.286;8.484;2023-11-18T01:56:00;94858.19;;;0.80;100.00
39739;BME280;25422;48.286;8.484;2023-11-18T01:58:26;94850.81;;;0.74;100.00
39739;BME280;25422;48.286;8.484;2023-11-18T02:00:53;94849.06;;;0.60;100.00
39739;BME280;25422;48.286;8.484;2023-11-18T02:03:18;94848.16;;;0.47;100.00
39739;BME280;25422;48.286;8.484;2023-11-18T02:05:45;94850.34;;;0.39;100.00
39739;BME280;25422;48.286;8.484;2023-11-18T02:08:11;94847.41;;;0.30;100.00
39739;BME280;25422;48.286;8.484;2023-11-18T02:10:47;94843.72;;;0.20;100.00
39739;BME280;25422;48.286;8.484;2023-11-18T02:13:21;94837.63;;;0.07;100.00
39739;BME280;25422;48.286;8.484;2023-11-18T02:15:54;94845.81;;;-0.01;100.00
39739;BME280;25422;48.286;8.484;2023-11-18T02:18:26;94850.31;;;-0.05;100.00
39739;BME280;25422;48.286;8.484;2023-11-18T02:20:56;94845.03;;;-0.18;100.00
39739;BME280;25422;48.286;8.484;2023-11-18T02:23:25;94850.25;;;-0.19;100.00
39739;BME280;25422;48.286;8.484;2023-11-18T02:25:54;94856.00;;;-0.30;100.00
39739;BME280;25422;48.286;8.484;2023-11-18T02:28:23;94853.22;;;-0.41;100.00
39739;BME280;25422;48.286;8.484;2023-11-18T02:30:54;94858.53;;;-0.44;100.00
39739;BME280;25422;48.286;8.484;2023-11-18T02:33:31;94857.88;;;-0.48;100.00
39739;BME280;25422;48.286;8.484;2023-11-18T02:36:35;94860.63;;;-0.51;100.00
39739;BME280;25422;48.286;8.484;2023-11-18T02:39:09;94860.13;;;-0.42;100.00
39739;BME280;25422;48.286;8.484;2023-11-18T02:41:41;94864.88;;;-0.50;100.00
39739;BME280;25422;48.286;8.484;2023-11-18T02:44:11;94867.34;;;-0.48;100.00
39739;BME280;25422;48.286;8.484;2023-11-18T02:46:44;94864.69;;;-0.63;100.00
39739;BME280;25422;48.286;8.484;2023-11-18T02:49:09;94859.06;;;-0.70;100.00
39739;BME280;25422;48.286;8.484;2023-11-18T02:51:35;94862.63;;;-0.72;100.00
39739;BME280;25422;48.286;8.484;2023-11-18T02:54:07;94855.91;;;-0.75;100.00
39739;BME280;25422;48.286;8.484;2023-11-18T02:56:39;94851.44;;;-0.87;100.00
39739;BME280;25422;48.286;8.484;2023-11-18T02:59:05;94855.28;;;-0.94;100.00
39739;BME280;25422;48.286;8.484;2023-11-18T03:01:32;94855.59;;;-1.00;100.00
39739;BME280;25422;48.286;8.484;2023-11-18T03:03:58;94848.97;;;-1.05;100.00
39739;BME280;25422;48.286;8.484;2023-11-18T03:06:24;94848.22;;;-1.07;100.00
39739;BME280;25422;48.286;8.484;2023-11-18T03:08:51;94848.03;;;-1.20;100.00
39739;BME280;25422;48.286;8.484;2023-11-18T03:11:21;94846.63;;;-1.25;100.00
39739;BME280;25422;48.286;8.484;2023-11-18T03:13:47;94841.84;;;-1.31;100.00
39739;BME280;25422;48.286;8.484;2023-11-18T03:16:13;94838.53;;;-1.33;100.00
39739;BME280;25422;48.286;8.484;2023-11-18T03:18:40;94839.41;;;-1.34;100.00
39739;BME280;25422;48.286;8.484;2023-11-18T03:21:10;94847.88;;;-1.32;100.00
39739;BME280;25422;48.286;8.484;2023-11-18T03:23:38;94850.69;;;-1.37;100.00
39739;BME280;25422;48.286;8.484;2023-11-18T03:26:04;94846.69;;;-1.43;100.00
39739;BME280;25422;48.286;8.484;2023-11-18T03:28:30;94840.84;;;-1.45;100.00
39739;BME280;25422;48.286;8.484;2023-11-18T03:30:56;94850.50;;;-1.50;100.00
39739;BME280;25422;48.286;8.484;2023-11-18T03:33:22;94855.03;;;-1.55;100.00
39739;BME280;25422;48.286;8.484;2023-11-18T03:35:48;94855.22;;;-1.58;100.00
39739;BME280;25422;48.286;8.484;2023-11-18T03:38:14;94854.78;;;-1.66;100.00
39739;BME280;25422;48.286;8.484;2023-11-18T03:40:41;94863.63;;;-1.72;100.00
39739;BME280;25422;48.286;8.484;2023-11-18T03:43:07;94854.47;;;-1.78;100.00
39739;BME280;25422;48.286;8.484;2023-11-18T03:45:33;94860.44;;;-1.77;100.00
39739;BME280;25422;48.286;8.484;2023-11-18T03:47:58;94863.09;;;-1.79;100.00
39739;BME280;25422;48.286;8.484;2023-11-18T03:50:26;94871.84;;;-1.83;100.00
39739;BME280;25422;48.286;8.484;2023-11-18T03:52:51;94876.13;;;-1.83;100.00
39739;BME280;25422;48.286;8.484;2023-11-18T03:55:17;94871.00;;;-1.83;100.00
39739;BME280;25422;48.286;8.484;2023-11-18T03:57:43;94862.66;;;-1.87;100.00
39739;BME280;25422;48.286;8.484;2023-11-18T04:00:11;94867.09;;;-1.91;100.00
39739;BME280;25422;48.286;8.484;2023-11-18T04:02:38;94860.78;;;-2.01;100.00
39739;BME280;25422;48.286;8.484;2023-11-18T04:05:05;94850.59;;;-2.03;100.00
39739;BME280;25422;48.286;8.484;2023-11-18T04:07:31;94852.25;;;-2.01;100.00
39739;BME280;25422;48.286;8.484;2023-11-18T04:09:56;94855.44;;;-1.96;100.00
39739;BME280;25422;48.286;8.484;2023-11-18T04:12:22;94850.91;;;-1.91;100.00
39739;BME280;25422;48.286;8.484;2023-11-18T04:14:49;94863.72;;;-1.91;100.00
39739;BME280;25422;48.286;8.484;2023-11-18T04:17:14;94865.22;;;-1.87;100.00
39739;BME280;25422;48.286;8.484;2023-11-18T04:19:40;94867.09;;;-1.91;100.00
39739;BME280;25422;48.286;8.484;2023-11-18T04:22:06;94865.28;;;-1.89;100.00
39739;BME280;25422;48.286;8.484;2023-11-18T04:24:32;94869.59;;;-1.89;100.00
39739;BME280;25422;48.286;8.484;2023-11-18T04:26:57;94865.53;;;-1.93;100.00
39739;BME280;25422;48.286;8.484;2023-11-18T04:29:23;94866.50;;;-1.96;100.00
39739;BME280;25422;48.286;8.484;2023-11-18T04:31:48;94874.56;;;-2.04;100.00
39739;BME280;25422;48.286;8.484;2023-11-18T04:34:14;94868.47;;;-2.01;100.00
39739;BME280;25422;48.286;8.484;2023-11-18T04:36:41;94872.09;;;-2.05;100.00
39739;BME280;25422;48.286;8.484;2023-11-18T04:39:07;94866.31;;;-2.09;100.00
39739;BME280;25422;48.286;8.484;2023-11-18T04:41:32;94870.66;;;-2.11;100.00
39739;BME280;25422;48.286;8.484;2023-11-18T04:43:58;94865.09;;;-2.19;100.00
39739;BME280;25422;48.286;8.484;2023-11-18T04:46:24;94863.13;;;-2.14;100.00
39739;BME280;25422;48.286;8.484;2023-11-18T04:48:49;94864.78;;;-2.13;100.00
39739;BME280;25422;48.286;8.484;2023-11-18T04:51:14;94857.69;;;-2.08;100.00
39739;BME280;25422;48.286;8.484;2023-11-18T04:53:40;94852.25;;;-2.01;100.00
39739;BME280;25422;48.286;8.484;2023-11-18T04:56:06;94843.66;;;-2.00;100.00
39739;BME280;25422;48.286;8.484;2023-11-18T04:58:38;94847.28;;;-2.05;100.00
39739;BME280;25422;48.286;8.484;2023-11-18T05:01:04;94841.41;;;-2.07;100.00
39739;BME280;25422;48.286;8.484;2023-11-18T05:03:30;94846.91;;;-2.14;100.00
39739;BME280;25422;48.286;8.484;2023-11-18T05:05:55;94842.25;;;-2.24;100.00
39739;BME280;25422;48.286;8.484;2023-11-18T05:08:21;94834.78;;;-2.28;100.00
39739;BME280;25422;48.286;8.484;2023-11-18T05:10:48;94840.66;;;-2.26;100.00
39739;BME280;25422;48.286;8.484;2023-11-18T05:13:14;94847.31;;;-2.22;100.00
39739;BME280;25422;48.286;8.484;2023-11-18T05:15:45;94839.59;;;-2.22;100.00
39739;BME280;25422;48.286;8.484;2023-11-18T05:18:13;94838.91;;;-2.26;100.00
39739;BME280;25422;48.286;8.484;2023-11-18T05:20:41;94838.22;;;-2.29;100.00
39739;BME280;25422;48.286;8.484;2023-11-18T05:23:06;94842.63;;;-2.14;100.00
39739;BME280;25422;48.286;8.484;2023-11-18T05:25:36;94844.03;;;-2.26;100.00
39739;BME280;25422;48.286;8.484;2023-11-18T05:28:02;94845.91;;;-2.29;100.00
39739;BME280;25422;48.286;8.484;2023-11-18T05:30:28;94840.94;;;-2.32;100.00
39739;BME280;25422;48.286;8.484;2023-11-18T05:32:56;94850.00;;;-2.43;100.00
39739;BME280;25422;48.286;8.484;2023-11-18T05:35:23;94837.25;;;-2.44;100.00
39739;BME280;25422;48.286;8.484;2023-11-18T05:37:54;94840.88;;;-2.31;100.00
39739;BME280;25422;48.286;8.484;2023-11-18T05:40:19;94832.53;;;-2.34;100.00
39739;BME280;25422;48.286;8.484;2023-11-18T05:42:45;94827.59;;;-2.39;100.00
39739;BME280;25422;48.286;8.484;2023-11-18T05:45:13;94835.44;;;-2.42;100.00
39739;BME280;25422;48.286;8.484;2023-11-18T05:47:54;94845.72;;;-2.42;100.00
39739;BME280;25422;48.286;8.484;2023-11-18T05:50:20;94836.28;;;-2.42;100.00
39739;BME280;25422;48.286;8.484;2023-11-18T05:52:46;94836.19;;;-2.40;100.00
39739;BME280;25422;48.286;8.484;2023-11-18T05:55:11;94834.16;;;-2.33;100.00
39739;BME280;25422;48.286;8.484;2023-11-18T05:57:37;94837.50;;;-2.31;100.00
39739;BME280;25422;48.286;8.484;2023-11-18T06:00:03;94836.16;;;-2.21;100.00
39739;BME280;25422;48.286;8.484;2023-11-18T06:02:37;94837.94;;;-2.23;100.00
39739;BME280;25422;48.286;8.484;2023-11-18T06:05:04;94838.03;;;-2.25;100.00
39739;BME280;25422;48.286;8.484;2023-11-18T06:07:30;94840.44;;;-2.22;100.00
39739;BME280;25422;48.286;8.484;2023-11-18T06:09:56;94833.94;;;-2.29;100.00
39739;BME280;25422;48.286;8.484;2023-11-18T06:12:23;94836.19;;;-2.40;100.00
39739;BME280;25422;48.286;8.484;2023-11-18T06:14:48;94831.47;;;-2.48;100.00
39739;BME280;25422;48.286;8.484;2023-11-18T06:17:16;94836.72;;;-2.51;100.00
39739;BME280;25422;48.286;8.484;2023-11-18T06:19:44;94838.53;;;-2.53;100.00
39739;BME280;25422;48.286;8.484;2023-11-18T06:22:10;94832.81;;;-2.58;100.00
39739;BME280;25422;48.286;8.484;2023-11-18T06:24:36;94832.91;;;-2.42;100.00
39739;BME280;25422;48.286;8.484;2023-11-18T06:27:04;94841.31;;;-2.40;100.00
39739;BME280;25422;48.286;8.484;2023-11-18T06:29:29;94847.91;;;-2.34;100.00
39739;BME280;25422;48.286;8.484;2023-11-18T06:31:55;94844.88;;;-2.25;100.00
39739;BME280;25422;48.286;8.484;2023-11-18T06:34:21;94852.63;;;-2.27;100.00
39739;BME280;25422;48.286;8.484;2023-11-18T06:36:46;94851.66;;;-2.24;100.00
39739;BME280;25422;48.286;8.484;2023-11-18T06:39:11;94846.00;;;-2.31;100.00
39739;BME280;25422;48.286;8.484;2023-11-18T06:41:38;94851.38;;;-2.35;100.00
39739;BME280;25422;48.286;8.484;2023-11-18T06:44:13;94851.38;;;-2.35;100.00
39739;BME280;25422;48.286;8.484;2023-11-18T06:46:43;94854.53;;;-2.30;100.00
39739;BME280;25422;48.286;8.484;2023-11-18T06:49:09;94844.88;;;-2.25;100.00
39739;BME280;25422;48.286;8.484;2023-11-18T06:51:40;94846.00;;;-2.13;100.00
39739;BME280;25422;48.286;8.484;2023-11-18T06:54:06;94849.25;;;-2.10;100.00
39739;BME280;25422;48.286;8.484;2023-11-18T06:56:42;94854.06;;;-2.04;100.00
39739;BME280;25422;48.286;8.484;2023-11-18T06:59:08;94846.88;;;-1.97;100.00
39739;BME280;25422;48.286;8.484;2023-11-18T07:01:36;94848.91;;;-1.86;100.00
39739;BME280;25422;48.286;8.484;2023-11-18T07:04:02;94849.50;;;-1.81;100.00
39739;BME280;25422;48.286;8.484;2023-11-18T07:06:27;94845.97;;;-1.78;100.00
39739;BME280;25422;48.286;8.484;2023-11-18T07:08:54;94837.97;;;-1.72;100.00
39739;BME280;25422;48.286;8.484;2023-11-18T07:11:20;94834.34;;;-1.68;100.00
39739;BME280;25422;48.286;8.484;2023-11-18T07:13:47;94829.84;;;-1.64;100.00
39739;BME280;25422;48.286;8.484;2023-11-18T07:16:13;94837.41;;;-1.61;100.00
39739;BME280;25422;48.286;8.484;2023-11-18T07:18:40;94841.31;;;-1.54;100.00
39739;BME280;25422;48.286;8.484;2023-11-18T07:21:07;94852.16;;;-1.49;100.00
39739;BME280;25422;48.286;8.484;2023-11-18T07:23:32;94855.06;;;-1.39;100.00
39739;BME280;25422;48.286;8.484;2023-11-18T07:25:58;94849.69;;;-1.34;100.00
39739;BME280;25422;48.286;8.484;2023-11-18T07:28:24;94860.88;;;-1.36;100.00
39739;BME280;25422;48.286;8.484;2023-11-18T07:30:49;94857.47;;;-1.36;100.00
39739;BME280;25422;48.286;8.484;2023-11-18T07:33:18;94858.16;;;-1.32;100.00
39739;BME280;25422;48.286;8.484;2023-11-18T07:35:48;94853.59;;;-1.27;100.00
39739;BME280;25422;48.286;8.484;2023-11-18T07:38:15;94856.81;;;-1.24;100.00
39739;BME280;25422;48.286;8.484;2023-11-18T07:40:41;94856.50;;;-1.17;100.00
39739;BME280;25422;48.286;8.484;2023-11-18T07:43:17;94867.03;;;-1.06;100.00
39739;BME280;25422;48.286;8.484;2023-11-18T07:45:47;94862.22;;;-0.96;100.00
39739;BME280;25422;48.286;8.484;2023-11-18T07:48:15;94865.56;;;-0.94;100.00
39739;BME280;25422;48.286;8.484;2023-11-18T07:50:43;94858.25;;;-0.86;100.00
39739;BME280;25422;48.286;8.484;2023-11-18T07:53:13;94852.13;;;-0.83;100.00
39739;BME280;25422;48.286;8.484;2023-11-18T07:55:38;94853.28;;;-0.73;100.00
39739;BME280;25422;48.286;8.484;2023-11-18T07:58:10;94853.09;;;-0.70;100.00
39739;BME280;25422;48.286;8.484;2023-11-18T08:00:43;94844.63;;;-0.72;100.00
39739;BME280;25422;48.286;8.484;2023-11-18T08:03:11;94838.31;;;-0.66;100.00
39739;BME280;25422;48.286;8.484;2023-11-18T08:05:41;94842.22;;;-0.59;100.00
39739;BME280;25422;48.286;8.484;2023-11-18T08:08:07;94841.47;;;-0.61;100.00
39739;BME280;25422;48.286;8.484;2023-11-18T08:10:34;94849.03;;;-0.58;100.00
39739;BME280;25422;48.286;8.484;2023-11-18T08:13:06;94856.38;;;-0.52;100.00
39739;BME280;25422;48.286;8.484;2023-11-18T08:15:33;94856.09;;;-0.31;100.00
39739;BME280;25422;48.286;8.484;2023-11-18T08:18:00;94851.44;;;-0.25;100.00
39739;BME280;25422;48.286;8.484;2023-11-18T08:20:25;94860.97;;;-0.11;100.00
39739;BME280;25422;48.286;8.484;2023-11-18T08:22:51;94854.81;;;0.06;100.00
39739;BME280;25422;48.286;8.484;2023-11-18T08:25:17;94848.34;;;0.15;100.00
39739;BME280;25422;48.286;8.484;2023-11-18T08:27:45;94845.03;;;0.27;100.00
39739;BME280;25422;48.286;8.484;2023-11-18T08:30:12;94837.03;;;0.32;100.00
39739;BME280;25422;48.286;8.484;2023-11-18T08:32:42;94836.13;;;0.33;100.00
39739;BME280;25422;48.286;8.484;2023-11-18T08:35:11;94832.59;;;0.20;100.00
39739;BME280;25422;48.286;8.484;2023-11-18T08:37:40;94826.25;;;0.11;100.00
39739;BME280;25422;48.286;8.484;2023-11-18T08:40:07;94833.25;;;0.23;100.00
39739;BME280;25422;48.286;8.484;2023-11-18T08:42:47;94831.78;;;0.33;100.00
39739;BME280;25422;48.286;8.484;2023-11-18T08:45:19;94847.97;;;0.36;100.00
39739;BME280;25422;48.286;8.484;2023-11-18T08:47:47;94842.34;;;0.43;100.00
39739;BME280;25422;48.286;8.484;2023-11-18T08:50:14;94837.88;;;0.61;100.00
39739;BME280;25422;48.286;8.484;2023-11-18T08:52:39;94839.22;;;0.67;100.00
39739;BME280;25422;48.286;8.484;2023-11-18T08:55:11;94842.88;;;0.92;100.00
39739;BME280;25422;48.286;8.484;2023-11-18T08:57:47;94839.06;;;1.26;100.00
39739;BME280;25422;48.286;8.484;2023-11-18T09:00:30;94829.88;;;1.62;100.00
39739;BME280;25422;48.286;8.484;2023-11-18T09:03:15;94813.91;;;1.70;100.00
39739;BME280;25422;48.286;8.484;2023-11-18T09:05:54;94818.81;;;2.00;100.00
39739;BME280;25422;48.286;8.484;2023-11-18T09:08:24;94799.41;;;2.08;100.00
39739;BME280;25422;48.286;8.484;2023-11-18T09:10:50;94801.97;;;2.46;100.00
39739;BME280;25422;48.286;8.484;2023-11-18T09:13:28;94794.22;;;2.46;100.00
39739;BME280;25422;48.286;8.484;2023-11-18T09:16:00;94794.03;;;2.36;100.00
39739;BME280;25422;48.286;8.484;2023-11-18T09:18:28;94799.13;;;2.25;100.00
39739;BME280;25422;48.286;8.484;2023-11-18T09:20:55;94808.09;;;2.32;100.00
39739;BME280;25422;48.286;8.484;2023-11-18T09:23:22;94812.78;;;2.64;100.00
39739;BME280;25422;48.286;8.484;2023-11-18T09:25:51;94819.06;;;2.99;100.00
39739;BME280;25422;48.286;8.484;2023-11-18T09:28:24;94819.50;;;2.80;100.00
39739;BME280;25422;48.286;8.484;2023-11-18T09:30:51;94830.88;;;2.77;100.00
39739;BME280;25422;48.286;8.484;2023-11-18T09:33:22;94817.44;;;2.85;100.00
39739;BME280;25422;48.286;8.484;2023-11-18T09:35:58;94824.06;;;2.76;100.00
39739;BME280;25422;48.286;8.484;2023-11-18T09:38:30;94835.81;;;2.80;100.00
39739;BME280;25422;48.286;8.484;2023-11-18T09:40:57;94826.75;;;2.75;100.00
39739;BME280;25422;48.286;8.484;2023-11-18T09:43:24;94836.34;;;2.73;100.00
39739;BME280;25422;48.286;8.484;2023-11-18T09:45:55;94829.03;;;2.66;100.00
39739;BME280;25422;48.286;8.484;2023-11-18T09:48:21;94823.75;;;2.68;100.00
39739;BME280;25422;48.286;8.484;2023-11-18T09:50:52;94819.03;;;2.49;100.00
39739;BME280;25422;48.286;8.484;2023-11-18T09:53:19;94826.66;;;2.50;100.00
39739;BME280;25422;48.286;8.484;2023-11-18T09:55:53;94816.75;;;2.44;100.00
39739;BME280;25422;48.286;8.484;2023-11-18T09:58:34;94827.88;;;2.58;100.00
39739;BME280;25422;48.286;8.484;2023-11-18T10:01:06;94822.00;;;2.56;100.00
39739;BME280;25422;48.286;8.484;2023-11-18T10:03:35;94821.69;;;2.60;100.00
39739;BME280;25422;48.286;8.484;2023-11-18T10:06:05;94823.97;;;2.52;100.00
39739;BME280;25422;48.286;8.484;2023-11-18T10:08:31;94820.88;;;2.60;100.00
39739;BME280;25422;48.286;8.484;2023-11-18T10:10:57;94827.22;;;2.93;100.00
39739;BME280;25422;48.286;8.484;2023-11-18T10:13:34;94831.13;;;2.98;100.00
39739;BME280;25422;48.286;8.484;2023-11-18T10:16:01;94831.75;;;3.02;100.00
39739;BME280;25422;48.286;8.484;2023-11-18T10:18:27;94841.69;;;2.95;100.00
39739;BME280;25422;48.286;8.484;2023-11-18T10:20:54;94829.63;;;2.96;100.00
39739;BME280;25422;48.286;8.484;2023-11-18T10:23:21;94824.75;;;2.91;100.00
39739;BME280;25422;48.286;8.484;2023-11-18T10:25:50;94813.88;;;2.99;100.00
39739;BME280;25422;48.286;8.484;2023-11-18T10:30:56;94822.38;;;3.25;100.00
39739;BME280;25422;48.286;8.484;2023-11-18T10:33:25;94829.31;;;3.49;100.00
39739;BME280;25422;48.286;8.484;2023-11-18T10:35:56;94834.63;;;3.47;100.00
39739;BME280;25422;48.286;8.484;2023-11-18T10:38:22;94824.19;;;3.60;100.00
39739;BME280;25422;48.286;8.484;2023-11-18T10:40:58;94828.97;;;3.29;100.00
39739;BME280;25422;48.286;8.484;2023-11-18T10:43:24;94822.34;;;3.38;100.00
39739;BME280;25422;48.286;8.484;2023-11-18T10:46:03;94810.50;;;3.47;100.00
39739;BME280;25422;48.286;8.484;2023-11-18T10:48:30;94821.50;;;3.37;100.00
39739;BME280;25422;48.286;8.484;2023-11-18T10:50:55;94813.34;;;3.55;100.00
39739;BME280;25422;48.286;8.484;2023-11-18T10:53:24;94824.72;;;3.77;100.00
39739;BME280;25422;48.286;8.484;2023-11-18T10:55:52;94823.97;;;3.63;100.00
39739;BME280;25422;48.286;8.484;2023-11-18T10:58:17;94825.19;;;3.70;100.00
39739;BME280;25422;48.286;8.484;2023-11-18T11:00:50;94823.97;;;3.63;100.00
39739;BME280;25422;48.286;8.484;2023-11-18T11:03:18;94818.25;;;3.71;100.00
39739;BME280;25422;48.286;8.484;2023-11-18T11:05:44;94822.34;;;3.62;100.00
39739;BME280;25422;48.286;8.484;2023-11-18T11:08:14;94824.69;;;3.65;100.00
39739;BME280;25422;48.286;8.484;2023-11-18T11:10:43;94814.28;;;3.54;100.00
39739;BME280;25422;48.286;8.484;2023-11-18T11:13:10;94820.94;;;3.45;100.00
39739;BME280;25422;48.286;8.484;2023-11-18T11:15:41;94818.97;;;3.49;100.00
39739;BME280;25422;48.286;8.484;2023-11-18T11:18:12;94812.00;;;3.62;100.00
39739;BME280;25422;48.286;8.484;2023-11-18T11:21:24;94805.53;;;3.44;100.00
39739;BME280;25422;48.286;8.484;2023-11-18T11:23:50;94791.72;;;3.32;100.00
39739;BME280;25422;48.286;8.484;2023-11-18T11:26:39;94802.03;;;3.45;100.00
39739;BME280;25422;48.286;8.484;2023-11-18T11:29:18;94803.88;;;3.43;100.00
39739;BME280;25422;48.286;8.484;2023-11-18T11:32:00;94804.44;;;3.35;100.00
39739;BME280;25422;48.286;8.484;2023-11-18T11:34:29;94804.72;;;3.43;100.00
39739;BME280;25422;48.286;8.484;2023-11-18T11:36:58;94800.38;;;3.44;100.00
39739;BME280;25422;48.286;8.484;2023-11-18T11:39:24;94797.41;;;3.37;100.00
39739;BME280;25422;48.286;8.484;2023-11-18T11:41:56;94794.00;;;3.36;100.00
39739;BME280;25422;48.286;8.484;2023-11-18T11:44:22;94788.25;;;3.44;100.00
39739;BME280;25422;48.286;8.484;2023-11-18T11:46:59;94787.28;;;3.58;100.00
39739;BME280;25422;48.286;8.484;2023-11-18T11:49:36;94776.03;;;3.46;100.00
39739;BME280;25422;48.286;8.484;2023-11-18T11:52:10;94779.91;;;3.41;100.00
39739;BME280;25422;48.286;8.484;2023-11-18T11:54:48;94760.16;;;3.40;100.00
39739;BME280;25422;48.286;8.484;2023-11-18T11:57:22;94750.28;;;3.45;100.00
39739;BME280;25422;48.286;8.484;2023-11-18T12:02:17;94744.41;;;3.18;100.00
39739;BME280;25422;48.286;8.484;2023-11-18T12:04:44;94736.75;;;3.17;100.00
39739;BME280;25422;48.286;8.484;2023-11-18T12:07:10;94732.75;;;3.13;100.00
39739;BME280;25422;48.286;8.484;2023-11-18T12:09:36;94735.34;;;3.13;100.00
39739;BME280;25422;48.286;8.484;2023-11-18T12:12:06;94736.59;;;3.07;100.00
39739;BME280;25422;48.286;8.484;2023-11-18T12:14:54;94728.84;;;3.07;100.00
39739;BME280;25422;48.286;8.484;2023-11-18T12:17:22;94733.22;;;3.07;100.00
39739;BME280;25422;48.286;8.484;2023-11-18T12:19:48;94723.78;;;3.06;100.00
39739;BME280;25422;48.286;8.484;2023-11-18T12:22:18;94720.59;;;3.02;100.00
39739;BME280;25422;48.286;8.484;2023-11-18T12:24:45;94726.69;;;3.01;100.00
39739;BME280;25422;48.286;8.484;2023-11-18T12:27:12;94725.22;;;3.10;100.00
39739;BME280;25422;48.286;8.484;2023-11-18T12:29:42;94736.59;;;3.07;100.00
39739;BME280;25422;48.286;8.484;2023-11-18T12:32:09;94723.28;;;3.00;100.00
39739;BME280;25422;48.286;8.484;2023-11-18T12:34:53;94724.28;;;3.11;100.00
39739;BME280;25422;48.286;8.484;2023-11-18T12:48:05;94698.38;;;2.99;100.00
39739;BME280;25422;48.286;8.484;2023-11-18T12:50:45;94702.63;;;3.00;100.00
39739;BME280;25422;48.286;8.484;2023-11-18T12:53:11;94698.38;;;2.99;100.00
39739;BME280;25422;48.286;8.484;2023-11-18T12:55:40;94704.03;;;3.04;100.00
39739;BME280;25422;48.286;8.484;2023-11-18T12:58:07;94689.69;;;3.00;100.00
39739;BME280;25422;48.286;8.484;2023-11-18T13:00:32;94678.94;;;3.18;100.00
39739;BME280;25422;48.286;8.484;2023-11-18T13:03:00;94670.22;;;3.08;100.00
39739;BME280;25422;48.286;8.484;2023-11-18T13:05:25;94674.22;;;3.12;100.00
39739;BME280;25422;48.286;8.484;2023-11-18T13:07:56;94684.66;;;3.10;100.00
39739;BME280;25422;48.286;8.484;2023-11-18T13:10:23;94683.75;;;3.11;100.00
39739;BME280;25422;48.286;8.484;2023-11-18T13:12:49;94696.81;;;3.21;100.00
39739;BME280;25422;48.286;8.484;2023-11-18T13:15:16;94684.34;;;3.15;100.00
39739;BME280;25422;48.286;8.484;2023-11-18T13:17:57;94694.97;;;3.23;100.00